sensor_id;sensor_type;location;lat;lon;timestamp;P1;durP1;ratioP1;P2;durP2;ratioP2
14191;SDS011;7177;48.572;7.838;2023-07-29T00:00:52;3.23;;;2.40;;
14191;SDS011;7177;48.572;7.838;2023-07-29T00:03:18;4.97;;;2.60;;
14191;SDS011;7177;48.572;7.838;2023-07-29T00:05:44;6.70;;;2.50;;
14191;SDS011;7177;48.572;7.838;2023-07-29T00:08:10;3.23;;;2.63;;
14191;SDS011;7177;48.572;7.838;2023-07-29T00:10:36;2.97;;;2.50;;
14191;SDS011;7177;48.572;7.838;2023-07-29T00:13:02;3.37;;;2.70;;
14191;SDS011;7177;48.572;7.838;2023-07-29T00:15:28;6.17;;;3.03;;
14191;SDS011;7177;48.572;7.838;2023-07-29T00:17:54;4.83;;;3.10;;
14191;SDS011;7177;48.572;7.838;2023-07-29T00:20:20;5.60;;;3.07;;
14191;SDS011;7177;48.572;7.838;2023-07-29T00:22:45;5.50;;;2.83;;
14191;SDS011;7177;48.572;7.838;2023-07-29T00:25:11;5.00;;;3.00;;
14191;SDS011;7177;48.572;7.838;2023-07-29T00:27:36;6.80;;;3.33;;
14191;SDS011;7177;48.572;7.838;2023-07-29T00:30:02;4.70;;;3.10;;
14191;SDS011;7177;48.572;7.838;2023-07-29T00:32:28;9.20;;;3.40;;
14191;SDS011;7177;48.572;7.838;2023-07-29T00:34:54;5.13;;;3.70;;
14191;SDS011;7177;48.572;7.838;2023-07-29T00:37:20;4.70;;;3.03;;
14191;SDS011;7177;48.572;7.838;2023-07-29T00:39:46;4.23;;;3.47;;
14191;SDS011;7177;48.572;7.838;2023-07-29T00:42:11;8.40;;;3.63;;
14191;SDS011;7177;48.572;7.838;2023-07-29T00:44:37;5.17;;;3.37;;
14191;SDS011;7177;48.572;7.838;2023-07-29T00:47:02;3.60;;;2.97;;
14191;SDS011;7177;48.572;7.838;2023-07-29T00:49:29;3.57;;;2.87;;
14191;SDS011;7177;48.572;7.838;2023-07-29T00:51:56;3.83;;;3.20;;
14191;SDS011;7177;48.572;7.838;2023-07-29T00:54:21;6.07;;;3.30;;
14191;SDS011;7177;48.572;7.838;2023-07-29T00:56:48;4.40;;;3.07;;
14191;SDS011;7177;48.572;7.838;2023-07-29T00:59:13;4.17;;;2.90;;
14191;SDS011;7177;48.572;7.838;2023-07-29T01:01:39;4.77;;;2.97;;
14191;SDS011;7177;48.572;7.838;2023-07-29T01:04:04;6.07;;;2.87;;
14191;SDS011;7177;48.572;7.838;2023-07-29T01:11:48;4.50;;;3.10;;
14191;SDS011;7177;48.572;7.838;2023-07-29T01:16:55;4.73;;;3.23;;
14191;SDS011;7177;48.572;7.838;2023-07-29T01:19:34;6.30;;;3.30;;
14191;SDS011;7177;48.572;7.838;2023-07-29T01:22:21;3.77;;;3.20;;
14191;SDS011;7177;48.572;7.838;2023-07-29T01:24:48;3.80;;;3.20;;
14191;SDS011;7177;48.572;7.838;2023-07-29T01:27:14;5.80;;;3.23;;
14191;SDS011;7177;48.572;7.838;2023-07-29T01:29:39;6.37;;;3.57;;
14191;SDS011;7177;48.572;7.838;2023-07-29T01:32:07;6.83;;;3.27;;
14191;SDS011;7177;48.572;7.838;2023-07-29T01:34:59;4.47;;;3.23;;
14191;SDS011;7177;48.572;7.838;2023-07-29T01:37:32;4.80;;;3.30;;
14191;SDS011;7177;48.572;7.838;2023-07-29T01:39:59;5.47;;;3.20;;
14191;SDS011;7177;48.572;7.838;2023-07-29T01:42:26;6.77;;;3.60;;
14191;SDS011;7177;48.572;7.838;2023-07-29T01:44:52;5.57;;;3.00;;
14191;SDS011;7177;48.572;7.838;2023-07-29T01:47:18;6.80;;;3.37;;
14191;SDS011;7177;48.572;7.838;2023-07-29T01:49:43;6.60;;;3.40;;
14191;SDS011;7177;48.572;7.838;2023-07-29T01:52:09;5.00;;;3.20;;
14191;SDS011;7177;48.572;7.838;2023-07-29T01:54:35;5.83;;;3.33;;
14191;SDS011;7177;48.572;7.838;2023-07-29T01:57:01;7.77;;;3.20;;
14191;SDS011;7177;48.572;7.838;2023-07-29T01:59:27;4.97;;;3.30;;
14191;SDS011;7177;48.572;7.838;2023-07-29T02:01:53;4.10;;;3.10;;
14191;SDS011;7177;48.572;7.838;2023-07-29T02:04:18;6.03;;;3.10;;
14191;SDS011;7177;48.572;7.838;2023-07-29T02:06:44;3.67;;;3.17;;
14191;SDS011;7177;48.572;7.838;2023-07-29T02:09:09;5.80;;;3.17;;
14191;SDS011;7177;48.572;7.838;2023-07-29T02:11:35;4.47;;;3.20;;
14191;SDS011;7177;48.572;7.838;2023-07-29T02:14:00;3.53;;;2.70;;
14191;SDS011;7177;48.572;7.838;2023-07-29T02:16:26;3.70;;;3.13;;
14191;SDS011;7177;48.572;7.838;2023-07-29T02:18:52;7.37;;;3.00;;
14191;SDS011;7177;48.572;7.838;2023-07-29T02:21:17;3.10;;;2.80;;
14191;SDS011;7177;48.572;7.838;2023-07-29T02:23:43;3.53;;;2.77;;
14191;SDS011;7177;48.572;7.838;2023-07-29T02:26:09;6.97;;;3.70;;
14191;SDS011;7177;48.572;7.838;2023-07-29T02:28:34;3.93;;;3.00;;
14191;SDS011;7177;48.572;7.838;2023-07-29T02:31:16;3.57;;;3.10;;
14191;SDS011;7177;48.572;7.838;2023-07-29T02:33:44;5.63;;;2.97;;
14191;SDS011;7177;48.572;7.838;2023-07-29T02:36:11;4.63;;;3.20;;
14191;SDS011;7177;48.572;7.838;2023-07-29T02:38:37;5.57;;;3.17;;
14191;SDS011;7177;48.572;7.838;2023-07-29T02:41:03;5.70;;;3.73;;
14191;SDS011;7177;48.572;7.838;2023-07-29T02:43:28;4.97;;;3.10;;
14191;SDS011;7177;48.572;7.838;2023-07-29T02:45:54;6.90;;;3.20;;
14191;SDS011;7177;48.572;7.838;2023-07-29T02:48:19;6.70;;;3.40;;
14191;SDS011;7177;48.572;7.838;2023-07-29T02:50:45;7.13;;;3.43;;
14191;SDS011;7177;48.572;7.838;2023-07-29T02:53:11;7.37;;;3.47;;
14191;SDS011;7177;48.572;7.838;2023-07-29T02:55:39;5.27;;;3.27;;
14191;SDS011;7177;48.572;7.838;2023-07-29T02:58:05;3.60;;;2.87;;
14191;SDS011;7177;48.572;7.838;2023-07-29T03:00:31;5.77;;;3.50;;
14191;SDS011;7177;48.572;7.838;2023-07-29T03:02:57;5.30;;;3.50;;
14191;SDS011;7177;48.572;7.838;2023-07-29T03:05:24;4.57;;;3.50;;
14191;SDS011;7177;48.572;7.838;2023-07-29T03:07:49;6.23;;;3.50;;
14191;SDS011;7177;48.572;7.838;2023-07-29T03:10:15;5.43;;;3.10;;
14191;SDS011;7177;48.572;7.838;2023-07-29T03:12:40;6.37;;;3.50;;
14191;SDS011;7177;48.572;7.838;2023-07-29T03:15:06;6.97;;;3.60;;
14191;SDS011;7177;48.572;7.838;2023-07-29T03:17:32;9.70;;;4.30;;
14191;SDS011;7177;48.572;7.838;2023-07-29T03:19:57;7.50;;;3.77;;
14191;SDS011;7177;48.572;7.838;2023-07-29T03:22:23;5.63;;;3.70;;
14191;SDS011;7177;48.572;7.838;2023-07-29T03:24:48;5.03;;;3.87;;
14191;SDS011;7177;48.572;7.838;2023-07-29T03:27:14;4.80;;;3.67;;
14191;SDS011;7177;48.572;7.838;2023-07-29T03:29:41;5.10;;;3.37;;
14191;SDS011;7177;48.572;7.838;2023-07-29T03:32:07;5.23;;;3.17;;
14191;SDS011;7177;48.572;7.838;2023-07-29T03:34:33;5.73;;;3.63;;
14191;SDS011;7177;48.572;7.838;2023-07-29T03:36:59;5.53;;;3.67;;
14191;SDS011;7177;48.572;7.838;2023-07-29T03:39:25;5.73;;;3.90;;
14191;SDS011;7177;48.572;7.838;2023-07-29T03:41:51;5.10;;;3.97;;
14191;SDS011;7177;48.572;7.838;2023-07-29T03:44:17;6.67;;;3.77;;
14191;SDS011;7177;48.572;7.838;2023-07-29T03:46:43;5.83;;;3.77;;
14191;SDS011;7177;48.572;7.838;2023-07-29T03:49:09;6.40;;;4.00;;
14191;SDS011;7177;48.572;7.838;2023-07-29T03:51:35;5.03;;;4.03;;
14191;SDS011;7177;48.572;7.838;2023-07-29T03:54:00;5.90;;;4.37;;
14191;SDS011;7177;48.572;7.838;2023-07-29T03:56:26;6.03;;;4.37;;
14191;SDS011;7177;48.572;7.838;2023-07-29T03:58:52;6.33;;;4.50;;
14191;SDS011;7177;48.572;7.838;2023-07-29T04:01:18;7.87;;;4.63;;
14191;SDS011;7177;48.572;7.838;2023-07-29T04:03:44;6.47;;;4.00;;
14191;SDS011;7177;48.572;7.838;2023-07-29T04:06:11;7.77;;;4.20;;
14191;SDS011;7177;48.572;7.838;2023-07-29T04:08:37;13.03;;;5.13;;
14191;SDS011;7177;48.572;7.838;2023-07-29T04:11:02;8.87;;;4.70;;
14191;SDS011;7177;48.572;7.838;2023-07-29T04:13:28;5.17;;;3.87;;
14191;SDS011;7177;48.572;7.838;2023-07-29T04:15:53;8.30;;;4.57;;
14191;SDS011;7177;48.572;7.838;2023-07-29T04:18:19;7.97;;;4.07;;
14191;SDS011;7177;48.572;7.838;2023-07-29T04:20:44;5.00;;;3.67;;
14191;SDS011;7177;48.572;7.838;2023-07-29T04:23:10;4.03;;;3.10;;
14191;SDS011;7177;48.572;7.838;2023-07-29T04:25:35;7.53;;;4.10;;
14191;SDS011;7177;48.572;7.838;2023-07-29T04:28:01;6.03;;;3.60;;
14191;SDS011;7177;48.572;7.838;2023-07-29T04:30:28;5.47;;;3.97;;
14191;SDS011;7177;48.572;7.838;2023-07-29T04:32:54;4.93;;;3.40;;
14191;SDS011;7177;48.572;7.838;2023-07-29T04:35:19;5.37;;;3.50;;
14191;SDS011;7177;48.572;7.838;2023-07-29T04:37:45;4.70;;;3.47;;
14191;SDS011;7177;48.572;7.838;2023-07-29T04:40:12;4.53;;;3.73;;
14191;SDS011;7177;48.572;7.838;2023-07-29T04:42:38;6.30;;;3.83;;
14191;SDS011;7177;48.572;7.838;2023-07-29T04:45:04;6.23;;;3.87;;
14191;SDS011;7177;48.572;7.838;2023-07-29T04:47:30;4.73;;;3.53;;
14191;SDS011;7177;48.572;7.838;2023-07-29T04:49:55;6.10;;;3.97;;
14191;SDS011;7177;48.572;7.838;2023-07-29T04:52:21;10.07;;;3.93;;
14191;SDS011;7177;48.572;7.838;2023-07-29T04:54:46;6.90;;;3.90;;
14191;SDS011;7177;48.572;7.838;2023-07-29T04:57:12;4.87;;;3.90;;
14191;SDS011;7177;48.572;7.838;2023-07-29T04:59:38;4.70;;;4.00;;
14191;SDS011;7177;48.572;7.838;2023-07-29T05:02:03;4.43;;;3.63;;
14191;SDS011;7177;48.572;7.838;2023-07-29T05:04:29;4.77;;;3.60;;
14191;SDS011;7177;48.572;7.838;2023-07-29T05:06:54;7.57;;;3.77;;
14191;SDS011;7177;48.572;7.838;2023-07-29T05:09:20;6.20;;;3.63;;
14191;SDS011;7177;48.572;7.838;2023-07-29T05:11:46;7.23;;;3.53;;
14191;SDS011;7177;48.572;7.838;2023-07-29T05:14:15;4.43;;;3.37;;
14191;SDS011;7177;48.572;7.838;2023-07-29T05:16:42;4.03;;;3.40;;
14191;SDS011;7177;48.572;7.838;2023-07-29T05:19:08;7.67;;;3.80;;
14191;SDS011;7177;48.572;7.838;2023-07-29T05:21:33;4.80;;;3.60;;
14191;SDS011;7177;48.572;7.838;2023-07-29T05:23:59;7.53;;;3.53;;
14191;SDS011;7177;48.572;7.838;2023-07-29T05:26:25;6.83;;;3.70;;
14191;SDS011;7177;48.572;7.838;2023-07-29T05:28:51;5.00;;;3.47;;
14191;SDS011;7177;48.572;7.838;2023-07-29T05:31:16;10.07;;;3.80;;
14191;SDS011;7177;48.572;7.838;2023-07-29T05:33:42;4.90;;;3.53;;
14191;SDS011;7177;48.572;7.838;2023-07-29T05:36:08;8.23;;;4.27;;
14191;SDS011;7177;48.572;7.838;2023-07-29T05:38:33;4.43;;;3.83;;
14191;SDS011;7177;48.572;7.838;2023-07-29T05:40:59;6.80;;;4.30;;
14191;SDS011;7177;48.572;7.838;2023-07-29T05:43:25;7.03;;;3.70;;
14191;SDS011;7177;48.572;7.838;2023-07-29T05:45:51;4.17;;;3.60;;
14191;SDS011;7177;48.572;7.838;2023-07-29T05:48:17;5.47;;;3.67;;
14191;SDS011;7177;48.572;7.838;2023-07-29T05:50:44;8.63;;;3.50;;
14191;SDS011;7177;48.572;7.838;2023-07-29T05:53:09;4.50;;;3.47;;
14191;SDS011;7177;48.572;7.838;2023-07-29T05:55:35;5.93;;;3.20;;
14191;SDS011;7177;48.572;7.838;2023-07-29T05:58:00;4.40;;;3.30;;
14191;SDS011;7177;48.572;7.838;2023-07-29T06:00:26;4.50;;;3.40;;
14191;SDS011;7177;48.572;7.838;2023-07-29T06:02:51;6.73;;;3.53;;
14191;SDS011;7177;48.572;7.838;2023-07-29T06:05:17;5.60;;;3.47;;
14191;SDS011;7177;48.572;7.838;2023-07-29T06:07:42;5.00;;;3.40;;
14191;SDS011;7177;48.572;7.838;2023-07-29T06:10:10;7.13;;;3.70;;
14191;SDS011;7177;48.572;7.838;2023-07-29T06:12:38;3.90;;;3.50;;
14191;SDS011;7177;48.572;7.838;2023-07-29T06:15:03;5.80;;;3.47;;
14191;SDS011;7177;48.572;7.838;2023-07-29T06:17:29;4.70;;;3.40;;
14191;SDS011;7177;48.572;7.838;2023-07-29T06:19:55;4.13;;;3.23;;
14191;SDS011;7177;48.572;7.838;2023-07-29T06:22:20;4.77;;;3.40;;
14191;SDS011;7177;48.572;7.838;2023-07-29T06:24:46;4.27;;;3.30;;
14191;SDS011;7177;48.572;7.838;2023-07-29T06:27:11;6.87;;;3.80;;
14191;SDS011;7177;48.572;7.838;2023-07-29T06:29:37;4.10;;;3.37;;
14191;SDS011;7177;48.572;7.838;2023-07-29T06:32:03;7.53;;;3.43;;
14191;SDS011;7177;48.572;7.838;2023-07-29T06:34:28;6.77;;;3.50;;
14191;SDS011;7177;48.572;7.838;2023-07-29T06:36:54;4.00;;;3.50;;
14191;SDS011;7177;48.572;7.838;2023-07-29T06:39:19;4.40;;;3.23;;
14191;SDS011;7177;48.572;7.838;2023-07-29T06:41:45;8.03;;;3.47;;
14191;SDS011;7177;48.572;7.838;2023-07-29T06:44:10;6.40;;;3.37;;
14191;SDS011;7177;48.572;7.838;2023-07-29T06:46:36;5.13;;;3.47;;
14191;SDS011;7177;48.572;7.838;2023-07-29T06:49:01;4.67;;;3.63;;
14191;SDS011;7177;48.572;7.838;2023-07-29T06:51:27;5.60;;;4.03;;
14191;SDS011;7177;48.572;7.838;2023-07-29T06:53:57;5.57;;;2.97;;
14191;SDS011;7177;48.572;7.838;2023-07-29T06:56:22;3.47;;;2.77;;
14191;SDS011;7177;48.572;7.838;2023-07-29T06:58:48;6.80;;;3.00;;
14191;SDS011;7177;48.572;7.838;2023-07-29T07:01:13;4.20;;;3.00;;
14191;SDS011;7177;48.572;7.838;2023-07-29T07:03:39;3.67;;;3.13;;
14191;SDS011;7177;48.572;7.838;2023-07-29T07:06:04;5.73;;;3.10;;
14191;SDS011;7177;48.572;7.838;2023-07-29T07:08:30;3.93;;;2.80;;
14191;SDS011;7177;48.572;7.838;2023-07-29T07:10:56;4.97;;;2.77;;
14191;SDS011;7177;48.572;7.838;2023-07-29T07:13:21;3.67;;;2.80;;
14191;SDS011;7177;48.572;7.838;2023-07-29T07:15:47;8.43;;;2.50;;
14191;SDS011;7177;48.572;7.838;2023-07-29T07:18:13;5.13;;;2.47;;
14191;SDS011;7177;48.572;7.838;2023-07-29T07:20:38;5.80;;;2.47;;
14191;SDS011;7177;48.572;7.838;2023-07-29T07:23:04;3.13;;;2.40;;
14191;SDS011;7177;48.572;7.838;2023-07-29T07:25:30;5.03;;;2.20;;
14191;SDS011;7177;48.572;7.838;2023-07-29T07:27:56;5.27;;;2.40;;
14191;SDS011;7177;48.572;7.838;2023-07-29T07:30:22;3.90;;;1.90;;
14191;SDS011;7177;48.572;7.838;2023-07-29T07:32:47;5.30;;;2.13;;
14191;SDS011;7177;48.572;7.838;2023-07-29T07:35:13;3.43;;;1.97;;
14191;SDS011;7177;48.572;7.838;2023-07-29T07:37:38;3.53;;;2.20;;
14191;SDS011;7177;48.572;7.838;2023-07-29T07:40:04;4.53;;;2.30;;
14191;SDS011;7177;48.572;7.838;2023-07-29T07:42:30;3.17;;;2.10;;
14191;SDS011;7177;48.572;7.838;2023-07-29T07:44:55;2.60;;;2.33;;
14191;SDS011;7177;48.572;7.838;2023-07-29T07:47:21;2.50;;;2.03;;
14191;SDS011;7177;48.572;7.838;2023-07-29T07:49:46;2.90;;;2.23;;
14191;SDS011;7177;48.572;7.838;2023-07-29T07:52:14;3.50;;;2.10;;
14191;SDS011;7177;48.572;7.838;2023-07-29T07:54:39;3.73;;;2.30;;
14191;SDS011;7177;48.572;7.838;2023-07-29T07:57:05;2.33;;;2.00;;
14191;SDS011;7177;48.572;7.838;2023-07-29T07:59:30;3.20;;;1.83;;
14191;SDS011;7177;48.572;7.838;2023-07-29T08:01:56;3.40;;;1.77;;
14191;SDS011;7177;48.572;7.838;2023-07-29T08:04:21;3.33;;;1.80;;
14191;SDS011;7177;48.572;7.838;2023-07-29T08:06:47;2.80;;;1.80;;
14191;SDS011;7177;48.572;7.838;2023-07-29T08:09:12;5.93;;;2.10;;
14191;SDS011;7177;48.572;7.838;2023-07-29T08:11:38;4.47;;;1.90;;
14191;SDS011;7177;48.572;7.838;2023-07-29T08:14:03;2.10;;;1.60;;
14191;SDS011;7177;48.572;7.838;2023-07-29T08:16:29;2.47;;;1.77;;
14191;SDS011;7177;48.572;7.838;2023-07-29T08:18:54;2.67;;;2.03;;
14191;SDS011;7177;48.572;7.838;2023-07-29T08:21:20;4.40;;;1.90;;
14191;SDS011;7177;48.572;7.838;2023-07-29T08:23:46;1.90;;;1.50;;
14191;SDS011;7177;48.572;7.838;2023-07-29T08:26:11;2.27;;;1.80;;
14191;SDS011;7177;48.572;7.838;2023-07-29T08:28:37;3.13;;;1.63;;
14191;SDS011;7177;48.572;7.838;2023-07-29T08:31:04;3.53;;;1.67;;
14191;SDS011;7177;48.572;7.838;2023-07-29T08:33:30;2.57;;;1.70;;
14191;SDS011;7177;48.572;7.838;2023-07-29T08:35:58;2.57;;;1.60;;
14191;SDS011;7177;48.572;7.838;2023-07-29T08:38:24;3.87;;;1.77;;
14191;SDS011;7177;48.572;7.838;2023-07-29T08:43:34;2.37;;;1.80;;
14191;SDS011;7177;48.572;7.838;2023-07-29T08:46:03;2.07;;;1.67;;
14191;SDS011;7177;48.572;7.838;2023-07-29T08:48:41;2.63;;;1.70;;
14191;SDS011;7177;48.572;7.838;2023-07-29T08:51:09;1.93;;;1.60;;
14191;SDS011;7177;48.572;7.838;2023-07-29T08:53:35;2.83;;;1.90;;
14191;SDS011;7177;48.572;7.838;2023-07-29T08:56:01;4.13;;;1.90;;
14191;SDS011;7177;48.572;7.838;2023-07-29T08:58:27;2.60;;;1.87;;
14191;SDS011;7177;48.572;7.838;2023-07-29T09:00:54;2.87;;;1.97;;
14191;SDS011;7177;48.572;7.838;2023-07-29T09:03:20;3.07;;;2.20;;
14191;SDS011;7177;48.572;7.838;2023-07-29T09:05:45;2.43;;;1.90;;
14191;SDS011;7177;48.572;7.838;2023-07-29T09:08:11;2.83;;;2.20;;
14191;SDS011;7177;48.572;7.838;2023-07-29T09:10:37;2.57;;;2.23;;
14191;SDS011;7177;48.572;7.838;2023-07-29T09:13:03;4.17;;;2.00;;
14191;SDS011;7177;48.572;7.838;2023-07-29T09:15:30;3.10;;;2.00;;
14191;SDS011;7177;48.572;7.838;2023-07-29T09:17:56;2.83;;;1.90;;
14191;SDS011;7177;48.572;7.838;2023-07-29T09:20:28;4.20;;;2.03;;
14191;SDS011;7177;48.572;7.838;2023-07-29T09:22:54;2.90;;;1.90;;
14191;SDS011;7177;48.572;7.838;2023-07-29T09:25:23;4.30;;;1.83;;
14191;SDS011;7177;48.572;7.838;2023-07-29T09:27:58;2.43;;;1.53;;
14191;SDS011;7177;48.572;7.838;2023-07-29T09:30:25;3.30;;;1.87;;
14191;SDS011;7177;48.572;7.838;2023-07-29T09:32:57;2.87;;;1.80;;
14191;SDS011;7177;48.572;7.838;2023-07-29T09:35:23;1.73;;;1.37;;
14191;SDS011;7177;48.572;7.838;2023-07-29T09:37:52;2.23;;;1.80;;
14191;SDS011;7177;48.572;7.838;2023-07-29T09:40:18;4.83;;;2.00;;
14191;SDS011;7177;48.572;7.838;2023-07-29T09:42:50;3.77;;;1.80;;
14191;SDS011;7177;48.572;7.838;2023-07-29T09:45:20;1.97;;;1.67;;
14191;SDS011;7177;48.572;7.838;2023-07-29T09:47:46;3.53;;;1.90;;
14191;SDS011;7177;48.572;7.838;2023-07-29T09:50:13;1.83;;;1.50;;
14191;SDS011;7177;48.572;7.838;2023-07-29T09:52:38;2.33;;;1.80;;
14191;SDS011;7177;48.572;7.838;2023-07-29T09:55:04;1.93;;;1.43;;
14191;SDS011;7177;48.572;7.838;2023-07-29T09:57:31;1.53;;;1.43;;
14191;SDS011;7177;48.572;7.838;2023-07-29T09:59:57;1.90;;;1.63;;
14191;SDS011;7177;48.572;7.838;2023-07-29T10:02:23;1.87;;;1.40;;
14191;SDS011;7177;48.572;7.838;2023-07-29T10:04:51;2.57;;;1.40;;
14191;SDS011;7177;48.572;7.838;2023-07-29T10:07:17;2.20;;;1.10;;
14191;SDS011;7177;48.572;7.838;2023-07-29T10:09:45;1.73;;;1.30;;
14191;SDS011;7177;48.572;7.838;2023-07-29T10:12:11;5.00;;;1.20;;
14191;SDS011;7177;48.572;7.838;2023-07-29T10:14:38;2.00;;;1.37;;
14191;SDS011;7177;48.572;7.838;2023-07-29T10:17:04;1.30;;;1.10;;
14191;SDS011;7177;48.572;7.838;2023-07-29T10:19:30;1.53;;;1.40;;
14191;SDS011;7177;48.572;7.838;2023-07-29T10:21:58;1.53;;;1.33;;
14191;SDS011;7177;48.572;7.838;2023-07-29T10:24:28;2.47;;;1.37;;
14191;SDS011;7177;48.572;7.838;2023-07-29T10:26:57;3.00;;;1.40;;
14191;SDS011;7177;48.572;7.838;2023-07-29T10:29:24;1.50;;;1.40;;
14191;SDS011;7177;48.572;7.838;2023-07-29T10:31:53;1.93;;;1.40;;
14191;SDS011;7177;48.572;7.838;2023-07-29T10:34:22;1.80;;;1.37;;
14191;SDS011;7177;48.572;7.838;2023-07-29T10:36:48;2.73;;;1.13;;
14191;SDS011;7177;48.572;7.838;2023-07-29T10:39:14;1.40;;;1.30;;
14191;SDS011;7177;48.572;7.838;2023-07-29T10:47:14;1.97;;;1.50;;
14191;SDS011;7177;48.572;7.838;2023-07-29T10:49:44;1.60;;;1.50;;
14191;SDS011;7177;48.572;7.838;2023-07-29T10:52:27;1.30;;;1.20;;
14191;SDS011;7177;48.572;7.838;2023-07-29T10:55:26;3.00;;;1.43;;
14191;SDS011;7177;48.572;7.838;2023-07-29T10:58:19;1.50;;;1.20;;
14191;SDS011;7177;48.572;7.838;2023-07-29T11:00:45;1.57;;;1.30;;
14191;SDS011;7177;48.572;7.838;2023-07-29T11:03:12;2.20;;;1.50;;
14191;SDS011;7177;48.572;7.838;2023-07-29T11:05:44;3.83;;;1.60;;
14191;SDS011;7177;48.572;7.838;2023-07-29T11:08:17;2.47;;;1.47;;
14191;SDS011;7177;48.572;7.838;2023-07-29T11:11:03;3.23;;;1.30;;
14191;SDS011;7177;48.572;7.838;2023-07-29T11:13:34;3.93;;;1.40;;
14191;SDS011;7177;48.572;7.838;2023-07-29T11:16:01;1.80;;;1.40;;
14191;SDS011;7177;48.572;7.838;2023-07-29T11:18:28;1.93;;;1.50;;
14191;SDS011;7177;48.572;7.838;2023-07-29T11:20:55;5.97;;;1.80;;
14191;SDS011;7177;48.572;7.838;2023-07-29T11:23:21;2.87;;;1.40;;
14191;SDS011;7177;48.572;7.838;2023-07-29T11:26:02;2.27;;;1.47;;
14191;SDS011;7177;48.572;7.838;2023-07-29T11:28:28;1.67;;;1.47;;
14191;SDS011;7177;48.572;7.838;2023-07-29T11:30:57;1.90;;;1.50;;
14191;SDS011;7177;48.572;7.838;2023-07-29T11:33:26;1.80;;;1.53;;
14191;SDS011;7177;48.572;7.838;2023-07-29T11:35:53;1.73;;;1.60;;
14191;SDS011;7177;48.572;7.838;2023-07-29T11:38:20;2.27;;;1.53;;
14191;SDS011;7177;48.572;7.838;2023-07-29T11:40:59;5.17;;;1.57;;
14191;SDS011;7177;48.572;7.838;2023-07-29T11:43:25;2.20;;;1.83;;
14191;SDS011;7177;48.572;7.838;2023-07-29T11:45:52;2.73;;;1.50;;
14191;SDS011;7177;48.572;7.838;2023-07-29T11:48:31;3.27;;;1.70;;
14191;SDS011;7177;48.572;7.838;2023-07-29T11:50:57;2.70;;;1.67;;
14191;SDS011;7177;48.572;7.838;2023-07-29T11:53:25;2.73;;;1.80;;
14191;SDS011;7177;48.572;7.838;2023-07-29T11:55:55;3.07;;;1.87;;
14191;SDS011;7177;48.572;7.838;2023-07-29T11:58:21;4.00;;;1.87;;
14191;SDS011;7177;48.572;7.838;2023-07-29T12:00:47;1.90;;;1.70;;
14191;SDS011;7177;48.572;7.838;2023-07-29T12:03:13;2.77;;;1.40;;
14191;SDS011;7177;48.572;7.838;2023-07-29T12:05:41;2.53;;;1.60;;
14191;SDS011;7177;48.572;7.838;2023-07-29T12:08:06;3.57;;;1.90;;
14191;SDS011;7177;48.572;7.838;2023-07-29T12:10:33;3.20;;;1.70;;
14191;SDS011;7177;48.572;7.838;2023-07-29T12:12:59;3.10;;;1.93;;
14191;SDS011;7177;48.572;7.838;2023-07-29T12:15:28;2.47;;;1.90;;
14191;SDS011;7177;48.572;7.838;2023-07-29T12:17:55;4.27;;;1.67;;
14191;SDS011;7177;48.572;7.838;2023-07-29T12:20:21;2.57;;;1.63;;
14191;SDS011;7177;48.572;7.838;2023-07-29T12:22:51;3.17;;;1.87;;
14191;SDS011;7177;48.572;7.838;2023-07-29T12:25:20;2.87;;;2.03;;
14191;SDS011;7177;48.572;7.838;2023-07-29T12:27:47;3.30;;;1.90;;
14191;SDS011;7177;48.572;7.838;2023-07-29T12:30:12;2.50;;;1.70;;
14191;SDS011;7177;48.572;7.838;2023-07-29T12:32:44;4.37;;;2.23;;
14191;SDS011;7177;48.572;7.838;2023-07-29T12:35:11;2.30;;;1.93;;
14191;SDS011;7177;48.572;7.838;2023-07-29T12:37:37;1.70;;;1.60;;
14191;SDS011;7177;48.572;7.838;2023-07-29T12:40:04;2.37;;;1.60;;
14191;SDS011;7177;48.572;7.838;2023-07-29T12:42:30;2.53;;;1.53;;
14191;SDS011;7177;48.572;7.838;2023-07-29T12:44:55;2.33;;;1.50;;
14191;SDS011;7177;48.572;7.838;2023-07-29T12:47:21;1.90;;;1.70;;
14191;SDS011;7177;48.572;7.838;2023-07-29T12:49:46;1.80;;;1.70;;
14191;SDS011;7177;48.572;7.838;2023-07-29T12:52:12;2.90;;;1.70;;
14191;SDS011;7177;48.572;7.838;2023-07-29T12:54:37;6.40;;;1.70;;
14191;SDS011;7177;48.572;7.838;2023-07-29T12:57:05;2.40;;;1.80;;
14191;SDS011;7177;48.572;7.838;2023-07-29T12:59:31;3.23;;;1.83;;
14191;SDS011;7177;48.572;7.838;2023-07-29T13:01:56;1.97;;;1.80;;
14191;SDS011;7177;48.572;7.838;2023-07-29T13:04:22;2.07;;;1.80;;
14191;SDS011;7177;48.572;7.838;2023-07-29T13:06:47;3.80;;;1.90;;
14191;SDS011;7177;48.572;7.838;2023-07-29T13:09:13;3.53;;;1.80;;
14191;SDS011;7177;48.572;7.838;2023-07-29T13:11:38;2.00;;;1.53;;
14191;SDS011;7177;48.572;7.838;2023-07-29T13:14:04;2.43;;;1.77;;
14191;SDS011;7177;48.572;7.838;2023-07-29T13:16:29;2.57;;;2.00;;
14191;SDS011;7177;48.572;7.838;2023-07-29T13:18:55;2.13;;;1.70;;
14191;SDS011;7177;48.572;7.838;2023-07-29T13:21:21;3.33;;;1.90;;
14191;SDS011;7177;48.572;7.838;2023-07-29T13:23:46;2.20;;;2.00;;
14191;SDS011;7177;48.572;7.838;2023-07-29T13:26:12;3.30;;;1.63;;
14191;SDS011;7177;48.572;7.838;2023-07-29T13:28:38;3.70;;;1.60;;
14191;SDS011;7177;48.572;7.838;2023-07-29T13:31:03;4.20;;;1.90;;
14191;SDS011;7177;48.572;7.838;2023-07-29T13:33:29;1.87;;;1.60;;
14191;SDS011;7177;48.572;7.838;2023-07-29T13:35:58;3.87;;;2.00;;
14191;SDS011;7177;48.572;7.838;2023-07-29T13:38:24;1.80;;;1.70;;
14191;SDS011;7177;48.572;7.838;2023-07-29T13:40:50;2.33;;;1.87;;
14191;SDS011;7177;48.572;7.838;2023-07-29T13:43:16;2.07;;;1.80;;
14191;SDS011;7177;48.572;7.838;2023-07-29T13:45:41;3.13;;;1.90;;
14191;SDS011;7177;48.572;7.838;2023-07-29T13:48:07;2.77;;;2.00;;
14191;SDS011;7177;48.572;7.838;2023-07-29T13:50:32;2.30;;;1.90;;
14191;SDS011;7177;48.572;7.838;2023-07-29T13:52:58;2.27;;;1.90;;
14191;SDS011;7177;48.572;7.838;2023-07-29T13:55:23;4.10;;;2.10;;
14191;SDS011;7177;48.572;7.838;2023-07-29T13:57:49;2.97;;;1.73;;
14191;SDS011;7177;48.572;7.838;2023-07-29T14:00:15;2.03;;;1.57;;
14191;SDS011;7177;48.572;7.838;2023-07-29T14:02:41;3.40;;;2.20;;
14191;SDS011;7177;48.572;7.838;2023-07-29T14:05:07;3.60;;;1.80;;
14191;SDS011;7177;48.572;7.838;2023-07-29T14:07:33;3.50;;;2.10;;
14191;SDS011;7177;48.572;7.838;2023-07-29T14:09:58;2.07;;;1.80;;
14191;SDS011;7177;48.572;7.838;2023-07-29T14:12:24;2.17;;;1.90;;
14191;SDS011;7177;48.572;7.838;2023-07-29T14:14:49;2.23;;;1.90;;
14191;SDS011;7177;48.572;7.838;2023-07-29T14:17:15;3.57;;;2.27;;
14191;SDS011;7177;48.572;7.838;2023-07-29T14:19:40;3.63;;;2.23;;
14191;SDS011;7177;48.572;7.838;2023-07-29T14:22:06;5.43;;;2.80;;
14191;SDS011;7177;48.572;7.838;2023-07-29T14:24:31;7.27;;;2.20;;
14191;SDS011;7177;48.572;7.838;2023-07-29T14:26:57;3.07;;;2.20;;
14191;SDS011;7177;48.572;7.838;2023-07-29T14:29:22;2.67;;;2.10;;
14191;SDS011;7177;48.572;7.838;2023-07-29T14:31:48;4.23;;;2.20;;
14191;SDS011;7177;48.572;7.838;2023-07-29T14:34:13;2.80;;;2.20;;
14191;SDS011;7177;48.572;7.838;2023-07-29T14:36:39;6.33;;;2.30;;
14191;SDS011;7177;48.572;7.838;2023-07-29T14:39:05;10.80;;;2.17;;
14191;SDS011;7177;48.572;7.838;2023-07-29T14:41:30;2.90;;;2.00;;
14191;SDS011;7177;48.572;7.838;2023-07-29T14:43:56;4.53;;;2.20;;
14191;SDS011;7177;48.572;7.838;2023-07-29T14:46:21;2.80;;;2.13;;
14191;SDS011;7177;48.572;7.838;2023-07-29T14:48:47;2.47;;;2.27;;
14191;SDS011;7177;48.572;7.838;2023-07-29T14:51:13;2.00;;;1.80;;
14191;SDS011;7177;48.572;7.838;2023-07-29T14:53:39;2.23;;;1.90;;
14191;SDS011;7177;48.572;7.838;2023-07-29T14:56:05;2.30;;;2.10;;
14191;SDS011;7177;48.572;7.838;2023-07-29T14:58:30;3.73;;;2.00;;
14191;SDS011;7177;48.572;7.838;2023-07-29T15:00:56;9.73;;;2.20;;
14191;SDS011;7177;48.572;7.838;2023-07-29T15:03:23;2.10;;;1.90;;
14191;SDS011;7177;48.572;7.838;2023-07-29T15:05:49;2.23;;;2.03;;
14191;SDS011;7177;48.572;7.838;2023-07-29T15:08:15;2.50;;;2.10;;
14191;SDS011;7177;48.572;7.838;2023-07-29T15:10:40;3.43;;;1.83;;
14191;SDS011;7177;48.572;7.838;2023-07-29T15:13:09;4.30;;;3.20;;